createdAt,value
2023-01-06T00:01:56.008Z,7.72
2023-01-06T00:04:24.483Z,7.74
2023-01-06T00:06:52.934Z,7.75
2023-01-06T00:09:21.371Z,7.75
2023-01-06T00:11:49.835Z,7.75
2023-01-06T00:14:18.329Z,7.80
2023-01-06T00:16:46.802Z,7.80
2023-01-06T00:19:16.658Z,7.76
2023-01-06T00:21:45.092Z,7.77
2023-01-06T00:24:13.689Z,7.78
2023-01-06T00:26:42.099Z,7.81
2023-01-06T00:29:11.350Z,7.64
2023-01-06T00:31:39.933Z,7.86
2023-01-06T00:34:11.707Z,7.79
2023-01-06T00:36:44.403Z,7.80
2023-01-06T00:39:13.620Z,7.77
2023-01-06T00:42:00.089Z,7.73
2023-01-06T00:44:28.773Z,7.79
2023-01-06T00:46:57.312Z,7.78
2023-01-06T00:49:26.470Z,7.74
2023-01-06T00:51:56.802Z,7.73
2023-01-06T00:54:25.383Z,7.71
2023-01-06T00:56:56.187Z,7.71
2023-01-06T00:59:26.361Z,7.75
2023-01-06T01:01:58.899Z,7.66
2023-01-06T01:04:28.042Z,7.65
2023-01-06T01:06:58.088Z,7.63
2023-01-06T01:09:28.378Z,7.60
2023-01-06T01:12:12.369Z,7.59
2023-01-06T01:14:44.577Z,7.55
2023-01-06T01:17:14.936Z,7.52
2023-01-06T01:19:43.423Z,7.63
2023-01-06T01:22:13.843Z,7.58
2023-01-06T01:24:42.641Z,7.60
2023-01-06T01:27:12.559Z,7.63
2023-01-06T01:29:41.036Z,7.62
2023-01-06T01:32:10.232Z,7.64
2023-01-06T01:34:38.790Z,7.65
2023-01-06T01:37:07.267Z,7.59
2023-01-06T01:39:37.148Z,7.60
2023-01-06T01:42:14.245Z,7.62
2023-01-06T01:44:58.732Z,7.58
2023-01-06T01:47:35.783Z,7.54
2023-01-06T01:50:09.262Z,7.54
2023-01-06T01:52:38.103Z,7.57
2023-01-06T01:55:10.360Z,7.58
2023-01-06T01:57:43.041Z,7.49
2023-01-06T02:00:12.432Z,7.49
2023-01-06T02:02:47.545Z,7.52
2023-01-06T02:05:21.002Z,7.52
2023-01-06T02:07:50.303Z,7.53
2023-01-06T02:10:23.035Z,7.53
2023-01-06T02:12:55.378Z,7.54
2023-01-06T02:15:27.607Z,7.47
2023-01-06T02:18:20.016Z,7.50
2023-01-06T02:21:17.999Z,7.55
2023-01-06T02:23:58.040Z,7.50
2023-01-06T02:27:05.584Z,7.51
2023-01-06T02:30:13.339Z,7.53
2023-01-06T02:32:51.066Z,7.52
2023-01-06T02:35:38.356Z,7.46
2023-01-06T02:38:17.992Z,7.49
2023-01-06T02:41:00.480Z,7.52
2023-01-06T02:43:35.733Z,7.48
2023-01-06T02:46:12.423Z,7.41
2023-01-06T02:48:56.722Z,7.42
2023-01-06T02:51:32.418Z,7.42
2023-01-06T02:54:12.887Z,7.39
2023-01-06T02:56:45.794Z,7.41
2023-01-06T02:59:21.518Z,7.35
2023-01-06T03:01:54.545Z,7.36
2023-01-06T03:04:30.241Z,7.34
2023-01-06T03:07:03.384Z,7.31
2023-01-06T03:09:35.250Z,7.32
2023-01-06T03:12:11.622Z,7.21
2023-01-06T03:14:44.374Z,7.19
2023-01-06T03:17:13.068Z,7.18
2023-01-06T03:19:44.929Z,7.16
2023-01-06T03:22:16.173Z,7.15
2023-01-06T03:24:46.476Z,7.17
2023-01-06T03:27:17.983Z,7.15
2023-01-06T03:29:47.197Z,7.14
2023-01-06T03:32:23.737Z,7.07
2023-01-06T03:35:11.022Z,7.17
2023-01-06T03:37:51.461Z,7.17
2023-01-06T03:40:30.459Z,7.25
2023-01-06T03:43:12.277Z,7.28
2023-01-06T03:45:53.146Z,7.20
2023-01-06T03:48:40.636Z,7.24
2023-01-06T03:51:18.783Z,7.24
2023-01-06T03:53:51.787Z,7.19
2023-01-06T03:56:24.979Z,7.21
2023-01-06T03:58:58.790Z,7.18
2023-01-06T04:01:29.334Z,7.18
2023-01-06T04:03:58.297Z,7.19
2023-01-06T04:06:31.615Z,7.14
2023-01-06T04:09:02.917Z,7.17
2023-01-06T04:11:50.069Z,7.13
2023-01-06T04:14:19.107Z,7.14
2023-01-06T04:16:47.973Z,7.14
2023-01-06T04:19:16.488Z,7.12
2023-01-06T04:21:46.684Z,7.09
2023-01-06T04:24:15.434Z,7.13
2023-01-06T04:26:43.871Z,7.14
2023-01-06T04:29:12.707Z,7.15
2023-01-06T04:31:41.451Z,7.15
2023-01-06T04:34:10.096Z,7.19
2023-01-06T04:36:38.573Z,7.26
2023-01-06T04:39:09.609Z,7.26
2023-01-06T04:41:38.210Z,7.18
2023-01-06T04:44:06.992Z,7.10
2023-01-06T04:46:35.445Z,7.02
2023-01-06T04:49:03.880Z,6.92
2023-01-06T04:51:32.302Z,6.85
2023-01-06T04:54:00.761Z,6.77
2023-01-06T04:56:30.612Z,6.69
2023-01-06T04:58:59.160Z,6.55
2023-01-06T05:01:28.551Z,6.41
2023-01-06T05:03:57.180Z,6.36
2023-01-06T05:06:25.614Z,6.27
2023-01-06T05:08:54.005Z,6.12
2023-01-06T05:11:23.703Z,6.09
2023-01-06T05:13:55.072Z,5.95
2023-01-06T05:16:26.824Z,5.85
2023-01-06T05:18:56.101Z,5.79
2023-01-06T05:21:26.043Z,5.79
2023-01-06T05:23:55.285Z,5.70
2023-01-06T05:26:25.457Z,5.68
2023-01-06T05:28:56.013Z,5.56
2023-01-06T05:31:24.578Z,5.67
2023-01-06T05:33:53.043Z,5.54
2023-01-06T05:36:21.498Z,5.37
2023-01-06T05:38:54.223Z,5.44
2023-01-06T05:41:22.947Z,5.38
2023-01-06T05:43:51.412Z,5.28
2023-01-06T05:46:21.228Z,5.24
2023-01-06T05:48:49.759Z,5.23
2023-01-06T05:51:18.834Z,5.15
2023-01-06T05:53:48.597Z,5.15
2023-01-06T05:56:19.377Z,5.07
2023-01-06T05:58:49.509Z,5.04
2023-01-06T06:01:22.205Z,5.03
2023-01-06T06:03:51.297Z,4.93
2023-01-06T06:06:21.030Z,4.88
2023-01-06T06:08:49.677Z,4.84
2023-01-06T06:11:20.143Z,4.80
2023-01-06T06:13:49.883Z,4.77
2023-01-06T06:16:21.854Z,4.75
2023-01-06T06:18:52.236Z,4.66
2023-01-06T06:21:23.272Z,4.66
2023-01-06T06:23:53.544Z,4.65
2023-01-06T06:26:22.531Z,4.59
2023-01-06T06:28:51.369Z,4.50
2023-01-06T06:31:23.811Z,4.36
2023-01-06T06:33:52.577Z,4.29
2023-01-06T06:36:21.410Z,4.23
2023-01-06T06:38:51.730Z,4.11
2023-01-06T06:41:21.419Z,4.13
2023-01-06T06:43:50.261Z,4.11
2023-01-06T06:46:19.830Z,4.05
2023-01-06T06:48:50.905Z,3.94
2023-01-06T06:51:21.139Z,3.89
2023-01-06T06:53:50.255Z,3.84
2023-01-06T06:56:20.883Z,3.76
2023-01-06T06:58:50.065Z,3.68
2023-01-06T07:01:21.018Z,3.65
2023-01-06T07:03:51.210Z,3.58
2023-01-06T07:06:21.348Z,3.64
2023-01-06T07:08:50.129Z,3.68
2023-01-06T07:11:19.426Z,3.66
2023-01-06T07:13:48.549Z,3.59
2023-01-06T07:16:17.127Z,3.52
2023-01-06T07:18:45.677Z,3.58
2023-01-06T07:21:15.668Z,3.57
2023-01-06T07:23:44.129Z,3.60
2023-01-06T07:26:15.449Z,3.72
2023-01-06T07:28:44.095Z,3.76
2023-01-06T07:31:12.607Z,3.81
2023-01-06T07:33:41.216Z,3.84
2023-01-06T07:36:10.204Z,3.84
2023-01-06T07:38:40.006Z,3.84
2023-01-06T07:41:08.519Z,3.84
2023-01-06T07:43:37.030Z,3.89
2023-01-06T07:46:05.951Z,3.86
2023-01-06T07:48:34.855Z,3.92
2023-01-06T07:51:03.974Z,3.99
2023-01-06T07:53:32.533Z,4.07
2023-01-06T07:56:02.352Z,4.08
2023-01-06T07:58:30.860Z,4.02
2023-01-06T08:00:59.377Z,4.09
2023-01-06T08:03:27.828Z,4.15
2023-01-06T08:05:56.321Z,4.19
2023-01-06T08:08:24.751Z,4.18
2023-01-06T08:10:53.282Z,4.17
2023-01-06T08:13:23.124Z,4.21
2023-01-06T08:15:52.610Z,4.22
2023-01-06T08:18:21.176Z,4.27
2023-01-06T08:20:49.661Z,4.29
2023-01-06T08:23:18.147Z,4.38
2023-01-06T08:25:46.643Z,4.40
2023-01-06T08:28:15.132Z,4.43
2023-01-06T08:30:45.013Z,4.50
2023-01-06T08:33:14.793Z,4.60
2023-01-06T08:35:46.860Z,4.77
2023-01-06T08:38:15.417Z,4.88
2023-01-06T08:40:43.875Z,5.07
2023-01-06T08:43:12.382Z,5.25
2023-01-06T08:45:41.063Z,5.43
2023-01-06T08:48:10.970Z,5.62
2023-01-06T08:50:39.825Z,5.76
2023-01-06T08:53:09.400Z,5.87
2023-01-06T08:55:39.685Z,6.07
2023-01-06T08:58:09.181Z,6.25
2023-01-06T09:00:38.475Z,6.31
2023-01-06T09:03:07.060Z,6.60
2023-01-06T09:05:36.952Z,6.82
2023-01-06T09:08:05.936Z,7.11
2023-01-06T09:10:34.450Z,7.17
2023-01-06T09:13:02.914Z,7.24
2023-01-06T09:15:32.075Z,7.24
2023-01-06T09:18:00.513Z,7.24
2023-01-06T09:20:29.234Z,7.29
2023-01-06T09:22:59.079Z,7.36
2023-01-06T09:25:27.568Z,7.44
2023-01-06T09:27:56.046Z,7.41
2023-01-06T09:30:25.275Z,7.40
2023-01-06T09:32:53.929Z,7.39
2023-01-06T09:35:22.398Z,7.39
2023-01-06T09:37:51.299Z,7.41
2023-01-06T09:40:27.190Z,7.47
2023-01-06T09:43:08.095Z,7.51
2023-01-06T09:45:40.845Z,7.59
2023-01-06T09:48:17.692Z,7.61
2023-01-06T09:50:49.721Z,7.70
2023-01-06T09:53:22.439Z,7.71
2023-01-06T09:55:57.843Z,7.74
2023-01-06T09:58:30.065Z,7.77
2023-01-06T10:01:02.726Z,7.76
2023-01-06T10:03:31.489Z,7.78
2023-01-06T10:06:17.456Z,7.84
2023-01-06T10:08:56.437Z,7.95
2023-01-06T10:11:33.489Z,7.98
2023-01-06T10:14:13.876Z,8.03
2023-01-06T10:16:54.870Z,8.00
2023-01-06T10:19:31.717Z,8.08
2023-01-06T10:22:08.770Z,8.07
2023-01-06T10:24:49.596Z,8.15
2023-01-06T10:27:28.055Z,8.27
2023-01-06T10:29:59.189Z,8.36
2023-01-06T10:32:30.627Z,8.37
2023-01-06T10:35:00.699Z,8.41
2023-01-06T10:37:37.530Z,8.43
2023-01-06T10:40:18.349Z,8.48
2023-01-06T10:43:02.570Z,8.50
2023-01-06T10:45:35.047Z,8.51
2023-01-06T10:48:05.865Z,8.54
2023-01-06T10:50:35.611Z,8.57
2023-01-06T10:53:04.648Z,8.63
2023-01-06T10:55:40.999Z,8.67
2023-01-06T10:58:31.328Z,8.74
2023-01-06T11:01:02.004Z,8.78
2023-01-06T11:03:33.150Z,8.82
2023-01-06T11:06:09.464Z,8.82
2023-01-06T11:08:38.991Z,8.82
2023-01-06T11:11:26.817Z,8.85
2023-01-06T11:13:58.607Z,8.83
2023-01-06T11:16:30.094Z,8.92
2023-01-06T11:19:01.747Z,8.95
2023-01-06T11:21:40.556Z,8.97
2023-01-06T11:24:18.914Z,9.02
2023-01-06T11:26:52.483Z,9.02
2023-01-06T11:29:31.481Z,9.04
2023-01-06T11:32:05.309Z,9.07
2023-01-06T11:34:34.714Z,9.09
2023-01-06T11:37:03.444Z,9.13
2023-01-06T11:39:35.278Z,9.16
2023-01-06T11:42:10.483Z,9.27
2023-01-06T11:44:42.805Z,9.32
2023-01-06T11:47:15.407Z,9.36
2023-01-06T11:49:49.577Z,9.42
2023-01-06T11:52:25.346Z,9.44
2023-01-06T11:55:02.543Z,9.47
2023-01-06T11:57:40.880Z,9.46
2023-01-06T12:00:27.852Z,9.48
2023-01-06T12:03:07.434Z,9.49
2023-01-06T12:05:44.080Z,9.54
2023-01-06T12:08:18.817Z,9.57
2023-01-06T12:10:54.531Z,9.52
2023-01-06T12:13:23.787Z,9.53
2023-01-06T12:16:01.593Z,9.44
2023-01-06T12:18:33.927Z,9.37
2023-01-06T12:21:04.844Z,9.40
2023-01-06T12:23:36.746Z,9.48
2023-01-06T12:26:14.074Z,9.51
2023-01-06T12:28:46.121Z,9.54
2023-01-06T12:31:21.027Z,9.56
2023-01-06T12:33:55.258Z,9.56
2023-01-06T12:36:31.231Z,9.64
2023-01-06T12:39:03.660Z,9.69
2023-01-06T12:41:39.046Z,9.68
2023-01-06T12:44:18.617Z,9.70
2023-01-06T12:46:55.663Z,9.71
2023-01-06T12:49:34.267Z,9.75
2023-01-06T12:52:07.741Z,9.71
2023-01-06T12:54:36.877Z,9.67
2023-01-06T12:57:23.955Z,9.70
2023-01-06T13:00:03.729Z,9.66
2023-01-06T13:02:54.798Z,9.66
2023-01-06T13:05:37.596Z,9.72
2023-01-06T13:08:22.248Z,9.72
2023-01-06T13:10:59.782Z,9.72
2023-01-06T13:13:42.321Z,9.75
2023-01-06T13:16:17.527Z,9.80
2023-01-06T13:18:58.901Z,9.71
2023-01-06T13:21:28.409Z,9.81
2023-01-06T13:24:20.304Z,9.84
2023-01-06T13:27:04.128Z,9.82
2023-01-06T13:29:44.582Z,9.85
2023-01-06T13:32:32.136Z,9.82
2023-01-06T13:35:37.194Z,9.80
2023-01-06T13:38:22.847Z,9.89
2023-01-06T13:40:52.809Z,9.82
2023-01-06T13:43:25.073Z,9.81
2023-01-06T13:45:58.756Z,9.85
2023-01-06T13:48:30.464Z,9.75
2023-01-06T13:51:07.178Z,9.80
2023-01-06T13:53:39.129Z,9.78
2023-01-06T13:56:25.058Z,9.80
2023-01-06T13:59:24.951Z,9.76
2023-01-06T14:01:55.116Z,9.77
2023-01-06T14:04:51.380Z,9.80
2023-01-06T14:07:33.061Z,9.77
2023-01-06T14:10:02.589Z,9.83
2023-01-06T14:12:35.037Z,9.78
2023-01-06T14:15:18.595Z,9.75
2023-01-06T14:17:47.662Z,9.80
2023-01-06T14:20:26.999Z,9.76
2023-01-06T14:23:01.836Z,9.73
2023-01-06T14:25:31.148Z,9.76
2023-01-06T14:28:24.665Z,9.74
2023-01-06T14:31:47.761Z,9.76
2023-01-06T14:34:19.879Z,9.77
2023-01-06T14:36:52.506Z,9.77
2023-01-06T14:39:25.305Z,9.78
2023-01-06T14:42:03.572Z,9.77
2023-01-06T14:44:38.152Z,9.74
2023-01-06T14:47:16.003Z,9.71
2023-01-06T14:49:52.778Z,9.67
2023-01-06T14:52:33.173Z,9.72
2023-01-06T14:55:02.793Z,9.71
2023-01-06T14:57:35.923Z,9.74
2023-01-06T15:00:10.025Z,9.73
2023-01-06T15:02:46.151Z,9.73
2023-01-06T15:05:23.911Z,9.72
2023-01-06T15:08:00.611Z,9.77
2023-01-06T15:10:30.950Z,9.78
2023-01-06T15:12:59.645Z,9.77
2023-01-06T15:15:30.343Z,9.75
2023-01-06T15:18:03.253Z,9.73
2023-01-06T15:20:34.238Z,9.69
2023-01-06T15:23:03.734Z,9.72
2023-01-06T15:25:35.021Z,9.72
2023-01-06T15:28:03.513Z,9.71
2023-01-06T15:30:34.826Z,9.71
2023-01-06T15:33:05.288Z,9.66
2023-01-06T15:35:34.354Z,9.63
2023-01-06T15:38:05.692Z,9.62
2023-01-06T15:40:36.842Z,9.60
2023-01-06T15:43:08.261Z,9.54
2023-01-06T15:45:37.542Z,9.50
2023-01-06T15:48:12.937Z,9.50
2023-01-06T15:50:41.540Z,9.46
2023-01-06T15:53:20.270Z,9.46
2023-01-06T15:55:51.633Z,9.41
2023-01-06T15:58:24.743Z,9.35
2023-01-06T16:01:00.665Z,9.35
2023-01-06T16:03:32.865Z,9.34
2023-01-06T16:06:11.577Z,9.24
2023-01-06T16:08:41.226Z,9.24
2023-01-06T16:11:12.465Z,9.22
2023-01-06T16:13:41.119Z,9.21
2023-01-06T16:16:28.404Z,9.19
2023-01-06T16:18:58.976Z,9.15
2023-01-06T16:21:30.362Z,9.20
2023-01-06T16:24:01.209Z,9.15
2023-01-06T16:26:32.106Z,9.17
2023-01-06T16:29:02.701Z,9.13
2023-01-06T16:31:33.555Z,9.11
2023-01-06T16:34:27.184Z,9.10
2023-01-06T16:36:57.602Z,9.09
2023-01-06T16:39:26.910Z,9.11
2023-01-06T16:42:39.104Z,9.06
2023-01-06T16:45:18.465Z,9.06
2023-01-06T16:47:56.738Z,8.95
2023-01-06T16:50:30.035Z,8.96
2023-01-06T16:53:03.784Z,8.92
2023-01-06T16:55:32.353Z,8.87
2023-01-06T16:58:02.322Z,8.83
2023-01-06T17:00:31.203Z,8.80
2023-01-06T17:02:59.897Z,8.77
2023-01-06T17:05:30.831Z,8.76
2023-01-06T17:08:02.819Z,8.71
2023-01-06T17:10:31.441Z,8.67
2023-01-06T17:13:20.913Z,8.69
2023-01-06T17:15:52.520Z,8.66
2023-01-06T17:18:24.289Z,8.64
2023-01-06T17:21:00.551Z,8.63
2023-01-06T17:23:29.117Z,8.61
2023-01-06T17:26:03.494Z,8.65
2023-01-06T17:28:33.328Z,8.64
2023-01-06T17:31:02.361Z,8.59
2023-01-06T17:33:31.594Z,8.56
2023-01-06T17:36:02.851Z,8.56
2023-01-06T17:38:31.587Z,8.56
2023-01-06T17:41:00.213Z,8.56
2023-01-06T17:43:33.379Z,8.53
2023-01-06T17:46:03.310Z,8.51
2023-01-06T17:48:32.906Z,8.56
2023-01-06T17:51:02.882Z,8.54
2023-01-06T17:53:52.467Z,8.52
2023-01-06T17:56:23.105Z,8.48
2023-01-06T17:58:51.774Z,8.49
2023-01-06T18:01:24.841Z,8.47
2023-01-06T18:03:57.588Z,8.49
2023-01-06T18:06:32.298Z,8.51
2023-01-06T18:09:10.768Z,8.47
2023-01-06T18:11:41.447Z,8.46
2023-01-06T18:14:18.937Z,8.45
2023-01-06T18:16:49.961Z,8.45
2023-01-06T18:19:37.262Z,8.44
2023-01-06T18:22:15.863Z,8.44
2023-01-06T18:24:44.944Z,8.43
2023-01-06T18:27:23.591Z,8.37
2023-01-06T18:29:53.089Z,8.38
2023-01-06T18:32:27.932Z,8.39
2023-01-06T18:34:57.556Z,8.35
2023-01-06T18:37:29.325Z,8.33
2023-01-06T18:40:01.658Z,8.34
2023-01-06T18:42:32.353Z,8.36
2023-01-06T18:45:20.338Z,8.31
2023-01-06T18:47:52.548Z,8.27
2023-01-06T18:50:26.533Z,8.27
2023-01-06T18:52:58.076Z,8.29
2023-01-06T18:55:32.248Z,8.26
2023-01-06T18:58:03.309Z,8.31
2023-01-06T19:00:39.235Z,8.28
2023-01-06T19:03:38.291Z,8.29
2023-01-06T19:06:45.378Z,8.26
2023-01-06T19:09:23.714Z,8.23
2023-01-06T19:12:00.812Z,8.25
2023-01-06T19:14:33.557Z,8.24
2023-01-06T19:17:02.039Z,8.22
2023-01-06T19:19:38.152Z,8.18
2023-01-06T19:22:26.978Z,8.19
2023-01-06T19:25:03.348Z,8.18
2023-01-06T19:27:45.579Z,8.19
2023-01-06T19:30:38.598Z,8.18
2023-01-06T19:33:30.544Z,8.15
2023-01-06T19:36:28.587Z,8.16
2023-01-06T19:38:57.240Z,8.12
2023-01-06T19:41:29.874Z,8.13
2023-01-06T19:44:03.332Z,8.10
2023-01-06T19:46:37.959Z,8.11
2023-01-06T19:49:14.309Z,8.13
2023-01-06T19:51:42.802Z,8.11
2023-01-06T19:54:26.181Z,8.09
2023-01-06T19:56:57.522Z,8.10
2023-01-06T19:59:29.388Z,8.07
2023-01-06T20:02:00.876Z,8.09
2023-01-06T20:04:29.533Z,8.04
2023-01-06T20:06:58.231Z,8.07
2023-01-06T20:09:26.757Z,8.03
2023-01-06T20:11:56.686Z,8.00
2023-01-06T20:14:25.241Z,8.01
2023-01-06T20:16:53.742Z,8.00
2023-01-06T20:19:22.435Z,7.92
2023-01-06T20:21:51.020Z,7.92
2023-01-06T20:24:19.630Z,7.97
2023-01-06T20:26:48.317Z,7.99
2023-01-06T20:29:18.189Z,7.97
2023-01-06T20:31:46.753Z,7.95
2023-01-06T20:34:15.319Z,7.92
2023-01-06T20:36:43.753Z,7.94
2023-01-06T20:39:15.029Z,7.95
2023-01-06T20:41:43.573Z,7.97
2023-01-06T20:44:13.098Z,8.00
2023-01-06T20:46:43.020Z,7.99
2023-01-06T20:49:13.049Z,7.96
2023-01-06T20:51:41.592Z,7.97
2023-01-06T20:54:10.131Z,7.93
2023-01-06T20:56:38.687Z,8.00
2023-01-06T20:59:07.317Z,7.99
2023-01-06T21:01:35.970Z,8.00
2023-01-06T21:04:06.134Z,8.02
2023-01-06T21:06:34.704Z,8.00
2023-01-06T21:09:03.308Z,7.97
2023-01-06T21:11:31.814Z,7.99
2023-01-06T21:14:00.427Z,7.99
2023-01-06T21:16:28.972Z,8.01
2023-01-06T21:18:58.319Z,8.01
2023-01-06T21:21:28.134Z,7.98
2023-01-06T21:23:56.811Z,7.99
2023-01-06T21:26:25.272Z,8.00
2023-01-06T21:28:53.782Z,8.00
2023-01-06T21:31:22.469Z,8.00
2023-01-06T21:33:51.032Z,8.02
2023-01-06T21:36:19.680Z,8.01
2023-01-06T21:38:49.632Z,7.99
2023-01-06T21:41:35.808Z,7.99
2023-01-06T21:44:04.479Z,7.95
2023-01-06T21:46:33.846Z,7.95
2023-01-06T21:49:02.452Z,7.92
2023-01-06T21:51:30.983Z,7.94
2023-01-06T21:54:01.471Z,7.96
2023-01-06T21:56:30.021Z,7.97
2023-01-06T21:58:59.589Z,7.92
2023-01-06T22:01:28.235Z,7.94
2023-01-06T22:03:57.104Z,7.91
2023-01-06T22:06:26.205Z,7.92
2023-01-06T22:08:55.292Z,7.91
2023-01-06T22:11:25.241Z,7.91
2023-01-06T22:13:53.780Z,7.93
2023-01-06T22:16:22.401Z,7.92
2023-01-06T22:18:52.780Z,7.91
2023-01-06T22:21:21.934Z,7.89
2023-01-06T22:23:51.291Z,7.80
2023-01-06T22:26:19.816Z,7.77
2023-01-06T22:28:49.709Z,7.81
2023-01-06T22:31:20.433Z,7.80
2023-01-06T22:33:48.999Z,7.78
2023-01-06T22:36:17.439Z,7.82
2023-01-06T22:38:46.052Z,7.84
2023-01-06T22:41:14.437Z,7.81
2023-01-06T22:43:42.970Z,7.79
2023-01-06T22:46:12.901Z,7.86
2023-01-06T22:48:41.268Z,7.82
2023-01-06T22:51:09.832Z,7.81
2023-01-06T22:53:38.296Z,7.83
2023-01-06T22:56:09.154Z,7.82
2023-01-06T22:58:39.253Z,7.87
2023-01-06T23:01:09.657Z,7.88
2023-01-06T23:03:39.611Z,7.87
2023-01-06T23:06:09.960Z,7.86
2023-01-06T23:08:48.090Z,7.87
2023-01-06T23:11:27.486Z,7.82
2023-01-06T23:13:59.636Z,7.86
2023-01-06T23:16:29.983Z,7.84
2023-01-06T23:19:00.038Z,7.80
2023-01-06T23:21:30.431Z,7.81
2023-01-06T23:23:58.958Z,7.81
2023-01-06T23:26:30.453Z,7.81
2023-01-06T23:28:59.264Z,7.81
2023-01-06T23:31:30.160Z,7.75
2023-01-06T23:34:04.039Z,7.68
2023-01-06T23:36:32.887Z,7.78
2023-01-06T23:39:03.166Z,7.71
2023-01-06T23:41:33.433Z,7.78
2023-01-06T23:44:02.982Z,7.77
2023-01-06T23:46:34.549Z,7.74
2023-01-06T23:49:05.656Z,7.72
2023-01-06T23:51:35.179Z,7.70
2023-01-06T23:54:04.627Z,7.74
2023-01-06T23:56:35.122Z,7.74
2023-01-06T23:59:06.229Z,7.72
